sensor_id;sensor_type;location;lat;lon;timestamp;P1;durP1;ratioP1;P2;durP2;ratioP2
70102;SDS011;57470;50.034;15.256;2023-09-19T00:00:56;2.35;;;0.43;;
70102;SDS011;57470;50.034;15.256;2023-09-19T00:03:22;3.25;;;0.70;;
70102;SDS011;57470;50.034;15.256;2023-09-19T00:05:48;3.63;;;0.77;;
70102;SDS011;57470;50.034;15.256;2023-09-19T00:08:15;2.85;;;0.55;;
70102;SDS011;57470;50.034;15.256;2023-09-19T00:10:41;3.30;;;0.63;;
70102;SDS011;57470;50.034;15.256;2023-09-19T00:13:07;2.80;;;0.60;;
70102;SDS011;57470;50.034;15.256;2023-09-19T00:15:38;2.78;;;0.50;;
70102;SDS011;57470;50.034;15.256;2023-09-19T00:18:05;3.15;;;0.68;;
70102;SDS011;57470;50.034;15.256;2023-09-19T00:20:31;2.90;;;0.50;;
70102;SDS011;57470;50.034;15.256;2023-09-19T00:22:57;3.30;;;0.70;;
70102;SDS011;57470;50.034;15.256;2023-09-19T00:25:24;4.10;;;0.63;;
70102;SDS011;57470;50.034;15.256;2023-09-19T00:27:51;2.53;;;0.50;;
70102;SDS011;57470;50.034;15.256;2023-09-19T00:30:17;6.07;;;0.95;;
70102;SDS011;57470;50.034;15.256;2023-09-19T00:32:46;3.17;;;0.60;;
70102;SDS011;57470;50.034;15.256;2023-09-19T00:35:16;3.20;;;0.80;;
70102;SDS011;57470;50.034;15.256;2023-09-19T00:37:41;2.90;;;0.80;;
70102;SDS011;57470;50.034;15.256;2023-09-19T00:40:07;2.30;;;0.50;;
70102;SDS011;57470;50.034;15.256;2023-09-19T00:42:40;3.70;;;0.88;;
70102;SDS011;57470;50.034;15.256;2023-09-19T00:45:06;3.45;;;0.63;;
70102;SDS011;57470;50.034;15.256;2023-09-19T00:47:56;3.08;;;0.40;;
70102;SDS011;57470;50.034;15.256;2023-09-19T00:50:23;2.30;;;0.55;;
70102;SDS011;57470;50.034;15.256;2023-09-19T00:52:52;5.47;;;0.83;;
70102;SDS011;57470;50.034;15.256;2023-09-19T00:55:20;3.15;;;0.60;;
70102;SDS011;57470;50.034;15.256;2023-09-19T00:57:46;3.92;;;0.70;;
70102;SDS011;57470;50.034;15.256;2023-09-19T01:00:15;2.53;;;0.40;;
70102;SDS011;57470;50.034;15.256;2023-09-19T01:02:41;2.80;;;0.52;;
70102;SDS011;57470;50.034;15.256;2023-09-19T01:05:08;4.63;;;0.77;;
70102;SDS011;57470;50.034;15.256;2023-09-19T01:07:34;3.10;;;0.65;;
70102;SDS011;57470;50.034;15.256;2023-09-19T01:10:03;3.03;;;0.70;;
70102;SDS011;57470;50.034;15.256;2023-09-19T01:15:11;2.72;;;0.55;;
70102;SDS011;57470;50.034;15.256;2023-09-19T01:17:48;4.00;;;0.52;;
70102;SDS011;57470;50.034;15.256;2023-09-19T01:26:30;2.83;;;0.40;;
70102;SDS011;57470;50.034;15.256;2023-09-19T01:32:04;2.53;;;0.47;;
70102;SDS011;57470;50.034;15.256;2023-09-19T01:34:46;4.72;;;0.40;;
70102;SDS011;57470;50.034;15.256;2023-09-19T01:37:16;2.17;;;0.38;;
70102;SDS011;57470;50.034;15.256;2023-09-19T01:39:48;2.20;;;0.30;;
70102;SDS011;57470;50.034;15.256;2023-09-19T01:42:35;1.95;;;0.30;;
70102;SDS011;57470;50.034;15.256;2023-09-19T01:45:11;2.58;;;0.60;;
70102;SDS011;57470;50.034;15.256;2023-09-19T01:47:48;2.22;;;0.40;;
70102;SDS011;57470;50.034;15.256;2023-09-19T01:50:38;2.58;;;0.45;;
70102;SDS011;57470;50.034;15.256;2023-09-19T01:56:00;4.00;;;0.50;;
70102;SDS011;57470;50.034;15.256;2023-09-19T01:58:34;3.33;;;0.60;;
70102;SDS011;57470;50.034;15.256;2023-09-19T02:01:04;3.08;;;0.40;;
70102;SDS011;57470;50.034;15.256;2023-09-19T02:03:33;2.15;;;0.40;;
70102;SDS011;57470;50.034;15.256;2023-09-19T02:06:00;5.17;;;0.63;;
70102;SDS011;57470;50.034;15.256;2023-09-19T02:08:25;2.90;;;0.40;;
70102;SDS011;57470;50.034;15.256;2023-09-19T02:10:51;2.43;;;0.30;;
70102;SDS011;57470;50.034;15.256;2023-09-19T02:13:21;5.55;;;0.40;;
70102;SDS011;57470;50.034;15.256;2023-09-19T02:15:53;2.50;;;0.40;;
70102;SDS011;57470;50.034;15.256;2023-09-19T02:18:21;3.45;;;0.52;;
70102;SDS011;57470;50.034;15.256;2023-09-19T02:20:48;3.38;;;0.40;;
70102;SDS011;57470;50.034;15.256;2023-09-19T02:23:16;2.70;;;0.30;;
70102;SDS011;57470;50.034;15.256;2023-09-19T02:25:51;2.95;;;0.80;;
70102;SDS011;57470;50.034;15.256;2023-09-19T02:28:19;3.28;;;0.60;;
70102;SDS011;57470;50.034;15.256;2023-09-19T02:30:49;10.23;;;0.52;;
70102;SDS011;57470;50.034;15.256;2023-09-19T02:33:16;5.53;;;0.50;;
70102;SDS011;57470;50.034;15.256;2023-09-19T02:35:43;2.63;;;0.50;;
70102;SDS011;57470;50.034;15.256;2023-09-19T02:38:09;5.20;;;0.60;;
70102;SDS011;57470;50.034;15.256;2023-09-19T02:40:37;2.38;;;0.35;;
70102;SDS011;57470;50.034;15.256;2023-09-19T02:43:04;3.88;;;0.32;;
70102;SDS011;57470;50.034;15.256;2023-09-19T02:45:31;3.53;;;0.50;;
70102;SDS011;57470;50.034;15.256;2023-09-19T02:47:58;2.00;;;0.30;;
70102;SDS011;57470;50.034;15.256;2023-09-19T02:50:24;2.20;;;0.50;;
70102;SDS011;57470;50.034;15.256;2023-09-19T02:52:51;3.25;;;0.70;;
70102;SDS011;57470;50.034;15.256;2023-09-19T02:55:19;2.22;;;0.40;;
70102;SDS011;57470;50.034;15.256;2023-09-19T02:57:51;3.83;;;0.75;;
70102;SDS011;57470;50.034;15.256;2023-09-19T03:00:20;2.87;;;0.60;;
70102;SDS011;57470;50.034;15.256;2023-09-19T03:02:52;2.47;;;0.57;;
70102;SDS011;57470;50.034;15.256;2023-09-19T03:05:21;4.82;;;0.50;;
70102;SDS011;57470;50.034;15.256;2023-09-19T03:07:49;3.28;;;0.73;;
70102;SDS011;57470;50.034;15.256;2023-09-19T03:10:19;2.38;;;0.40;;
70102;SDS011;57470;50.034;15.256;2023-09-19T03:12:47;2.40;;;0.50;;
70102;SDS011;57470;50.034;15.256;2023-09-19T03:15:14;2.20;;;0.50;;
70102;SDS011;57470;50.034;15.256;2023-09-19T03:17:43;3.28;;;0.68;;
70102;SDS011;57470;50.034;15.256;2023-09-19T03:20:09;2.72;;;0.38;;
70102;SDS011;57470;50.034;15.256;2023-09-19T03:22:37;3.40;;;0.50;;
70102;SDS011;57470;50.034;15.256;2023-09-19T03:25:03;2.33;;;0.40;;
70102;SDS011;57470;50.034;15.256;2023-09-19T03:27:32;3.10;;;0.70;;
70102;SDS011;57470;50.034;15.256;2023-09-19T03:30:01;2.65;;;0.57;;
70102;SDS011;57470;50.034;15.256;2023-09-19T03:32:30;2.78;;;0.55;;
70102;SDS011;57470;50.034;15.256;2023-09-19T03:34:56;2.00;;;0.37;;
70102;SDS011;57470;50.034;15.256;2023-09-19T03:37:21;2.33;;;0.37;;
70102;SDS011;57470;50.034;15.256;2023-09-19T03:39:46;3.00;;;0.40;;
70102;SDS011;57470;50.034;15.256;2023-09-19T03:42:12;2.67;;;0.38;;
70102;SDS011;57470;50.034;15.256;2023-09-19T03:44:37;2.93;;;0.70;;
70102;SDS011;57470;50.034;15.256;2023-09-19T03:47:03;3.37;;;0.60;;
70102;SDS011;57470;50.034;15.256;2023-09-19T03:49:29;3.22;;;0.60;;
70102;SDS011;57470;50.034;15.256;2023-09-19T03:51:55;2.10;;;0.40;;
70102;SDS011;57470;50.034;15.256;2023-09-19T03:54:21;2.37;;;0.40;;
70102;SDS011;57470;50.034;15.256;2023-09-19T03:56:46;2.63;;;0.50;;
70102;SDS011;57470;50.034;15.256;2023-09-19T03:59:11;3.33;;;0.60;;
70102;SDS011;57470;50.034;15.256;2023-09-19T04:01:37;3.05;;;0.50;;
70102;SDS011;57470;50.034;15.256;2023-09-19T04:04:03;3.03;;;0.40;;
70102;SDS011;57470;50.034;15.256;2023-09-19T04:06:36;2.70;;;0.47;;
70102;SDS011;57470;50.034;15.256;2023-09-19T04:09:02;3.10;;;0.55;;
70102;SDS011;57470;50.034;15.256;2023-09-19T04:11:29;2.72;;;0.50;;
70102;SDS011;57470;50.034;15.256;2023-09-19T04:13:55;5.90;;;0.70;;
70102;SDS011;57470;50.034;15.256;2023-09-19T04:16:21;3.47;;;0.60;;
70102;SDS011;57470;50.034;15.256;2023-09-19T04:18:46;3.30;;;0.60;;
70102;SDS011;57470;50.034;15.256;2023-09-19T04:21:12;3.80;;;0.90;;
70102;SDS011;57470;50.034;15.256;2023-09-19T04:23:37;2.97;;;0.60;;
70102;SDS011;57470;50.034;15.256;2023-09-19T04:26:02;2.20;;;0.40;;
70102;SDS011;57470;50.034;15.256;2023-09-19T04:28:31;3.20;;;0.40;;
70102;SDS011;57470;50.034;15.256;2023-09-19T04:30:57;2.95;;;0.75;;
70102;SDS011;57470;50.034;15.256;2023-09-19T04:33:24;4.88;;;0.65;;
70102;SDS011;57470;50.034;15.256;2023-09-19T04:35:50;4.32;;;0.88;;
70102;SDS011;57470;50.034;15.256;2023-09-19T04:38:17;4.77;;;0.40;;
70102;SDS011;57470;50.034;15.256;2023-09-19T04:40:45;3.47;;;0.68;;
70102;SDS011;57470;50.034;15.256;2023-09-19T04:43:11;3.58;;;0.50;;
70102;SDS011;57470;50.034;15.256;2023-09-19T04:45:38;2.77;;;0.60;;
70102;SDS011;57470;50.034;15.256;2023-09-19T04:48:05;3.22;;;0.80;;
70102;SDS011;57470;50.034;15.256;2023-09-19T04:50:34;2.25;;;0.50;;
70102;SDS011;57470;50.034;15.256;2023-09-19T04:52:59;2.80;;;0.60;;
70102;SDS011;57470;50.034;15.256;2023-09-19T04:55:26;3.08;;;0.60;;
70102;SDS011;57470;50.034;15.256;2023-09-19T04:57:52;3.25;;;0.68;;
70102;SDS011;57470;50.034;15.256;2023-09-19T05:00:21;2.13;;;0.43;;
70102;SDS011;57470;50.034;15.256;2023-09-19T05:02:53;3.00;;;0.77;;
70102;SDS011;57470;50.034;15.256;2023-09-19T05:05:21;2.58;;;0.40;;
70102;SDS011;57470;50.034;15.256;2023-09-19T05:07:47;2.80;;;0.75;;
70102;SDS011;57470;50.034;15.256;2023-09-19T05:10:13;3.63;;;0.75;;
70102;SDS011;57470;50.034;15.256;2023-09-19T05:12:39;5.53;;;0.80;;
70102;SDS011;57470;50.034;15.256;2023-09-19T05:15:06;5.40;;;0.70;;
70102;SDS011;57470;50.034;15.256;2023-09-19T05:17:32;2.45;;;0.30;;
70102;SDS011;57470;50.034;15.256;2023-09-19T05:19:59;3.78;;;0.70;;
70102;SDS011;57470;50.034;15.256;2023-09-19T05:22:28;2.90;;;0.55;;
70102;SDS011;57470;50.034;15.256;2023-09-19T05:24:54;3.57;;;0.83;;
70102;SDS011;57470;50.034;15.256;2023-09-19T05:27:19;3.17;;;0.70;;
70102;SDS011;57470;50.034;15.256;2023-09-19T05:29:46;3.10;;;0.80;;
70102;SDS011;57470;50.034;15.256;2023-09-19T05:32:11;3.67;;;0.75;;
70102;SDS011;57470;50.034;15.256;2023-09-19T05:34:37;2.67;;;0.60;;
70102;SDS011;57470;50.034;15.256;2023-09-19T05:37:03;3.10;;;0.60;;
70102;SDS011;57470;50.034;15.256;2023-09-19T05:39:30;3.13;;;0.75;;
70102;SDS011;57470;50.034;15.256;2023-09-19T05:41:55;7.20;;;0.90;;
70102;SDS011;57470;50.034;15.256;2023-09-19T05:44:22;3.10;;;0.70;;
70102;SDS011;57470;50.034;15.256;2023-09-19T05:46:47;3.50;;;1.07;;
70102;SDS011;57470;50.034;15.256;2023-09-19T05:49:13;4.90;;;0.73;;
70102;SDS011;57470;50.034;15.256;2023-09-19T05:51:39;3.63;;;1.00;;
70102;SDS011;57470;50.034;15.256;2023-09-19T05:54:04;2.97;;;0.60;;
70102;SDS011;57470;50.034;15.256;2023-09-19T05:56:29;3.77;;;0.90;;
70102;SDS011;57470;50.034;15.256;2023-09-19T05:58:55;2.43;;;0.63;;
70102;SDS011;57470;50.034;15.256;2023-09-19T06:01:20;3.10;;;1.10;;
70102;SDS011;57470;50.034;15.256;2023-09-19T06:03:46;3.13;;;0.93;;
70102;SDS011;57470;50.034;15.256;2023-09-19T06:06:11;3.17;;;0.70;;
70102;SDS011;57470;50.034;15.256;2023-09-19T06:08:37;4.60;;;0.68;;
70102;SDS011;57470;50.034;15.256;2023-09-19T06:11:02;3.30;;;0.87;;
70102;SDS011;57470;50.034;15.256;2023-09-19T06:13:30;4.85;;;0.75;;
70102;SDS011;57470;50.034;15.256;2023-09-19T06:15:58;4.97;;;1.05;;
70102;SDS011;57470;50.034;15.256;2023-09-19T06:18:28;2.83;;;0.77;;
70102;SDS011;57470;50.034;15.256;2023-09-19T06:20:54;3.88;;;0.80;;
70102;SDS011;57470;50.034;15.256;2023-09-19T06:23:20;3.88;;;0.85;;
70102;SDS011;57470;50.034;15.256;2023-09-19T06:25:46;6.13;;;1.02;;
70102;SDS011;57470;50.034;15.256;2023-09-19T06:28:11;4.13;;;0.70;;
70102;SDS011;57470;50.034;15.256;2023-09-19T06:30:37;3.57;;;0.57;;
70102;SDS011;57470;50.034;15.256;2023-09-19T06:33:06;3.65;;;1.00;;
70102;SDS011;57470;50.034;15.256;2023-09-19T06:35:32;3.77;;;1.00;;
70102;SDS011;57470;50.034;15.256;2023-09-19T06:37:59;4.25;;;0.80;;
70102;SDS011;57470;50.034;15.256;2023-09-19T06:40:28;5.72;;;0.98;;
70102;SDS011;57470;50.034;15.256;2023-09-19T06:42:56;3.63;;;0.80;;
70102;SDS011;57470;50.034;15.256;2023-09-19T06:45:22;3.37;;;0.67;;
70102;SDS011;57470;50.034;15.256;2023-09-19T06:47:48;3.47;;;0.60;;
70102;SDS011;57470;50.034;15.256;2023-09-19T06:50:15;3.58;;;1.08;;
70102;SDS011;57470;50.034;15.256;2023-09-19T06:52:44;4.22;;;0.75;;
70102;SDS011;57470;50.034;15.256;2023-09-19T06:55:11;3.20;;;0.80;;
70102;SDS011;57470;50.034;15.256;2023-09-19T06:57:38;3.40;;;0.90;;
70102;SDS011;57470;50.034;15.256;2023-09-19T07:00:05;7.22;;;1.08;;
70102;SDS011;57470;50.034;15.256;2023-09-19T07:02:40;3.70;;;0.85;;
70102;SDS011;57470;50.034;15.256;2023-09-19T07:05:09;10.98;;;1.75;;
70102;SDS011;57470;50.034;15.256;2023-09-19T07:07:34;5.80;;;1.43;;
70102;SDS011;57470;50.034;15.256;2023-09-19T07:10:01;3.80;;;0.97;;
70102;SDS011;57470;50.034;15.256;2023-09-19T07:12:27;7.10;;;1.20;;
70102;SDS011;57470;50.034;15.256;2023-09-19T07:14:52;3.90;;;0.90;;
70102;SDS011;57470;50.034;15.256;2023-09-19T07:17:18;4.18;;;1.10;;
70102;SDS011;57470;50.034;15.256;2023-09-19T07:19:44;4.07;;;0.80;;
70102;SDS011;57470;50.034;15.256;2023-09-19T07:22:10;5.40;;;1.08;;
70102;SDS011;57470;50.034;15.256;2023-09-19T07:24:35;4.80;;;1.40;;
70102;SDS011;57470;50.034;15.256;2023-09-19T07:27:01;7.90;;;1.08;;
70102;SDS011;57470;50.034;15.256;2023-09-19T07:29:27;4.65;;;1.08;;
70102;SDS011;57470;50.034;15.256;2023-09-19T07:31:53;4.37;;;1.00;;
70102;SDS011;57470;50.034;15.256;2023-09-19T07:34:19;5.93;;;1.47;;
70102;SDS011;57470;50.034;15.256;2023-09-19T07:36:46;4.87;;;1.37;;
70102;SDS011;57470;50.034;15.256;2023-09-19T07:39:12;4.65;;;1.67;;
70102;SDS011;57470;50.034;15.256;2023-09-19T07:41:37;4.37;;;1.53;;
70102;SDS011;57470;50.034;15.256;2023-09-19T07:44:03;5.10;;;1.30;;
70102;SDS011;57470;50.034;15.256;2023-09-19T07:46:28;4.53;;;1.57;;
70102;SDS011;57470;50.034;15.256;2023-09-19T07:48:56;3.80;;;1.10;;
70102;SDS011;57470;50.034;15.256;2023-09-19T07:51:22;4.13;;;1.35;;
70102;SDS011;57470;50.034;15.256;2023-09-19T07:53:49;4.50;;;1.33;;
70102;SDS011;57470;50.034;15.256;2023-09-19T07:56:14;4.57;;;1.30;;
70102;SDS011;57470;50.034;15.256;2023-09-19T07:58:40;3.55;;;1.00;;
70102;SDS011;57470;50.034;15.256;2023-09-19T08:01:09;3.73;;;1.03;;
70102;SDS011;57470;50.034;15.256;2023-09-19T08:03:35;4.00;;;1.00;;
70102;SDS011;57470;50.034;15.256;2023-09-19T08:06:06;4.10;;;1.33;;
70102;SDS011;57470;50.034;15.256;2023-09-19T08:08:32;5.75;;;1.40;;
70102;SDS011;57470;50.034;15.256;2023-09-19T08:10:59;4.13;;;1.10;;
70102;SDS011;57470;50.034;15.256;2023-09-19T08:13:26;3.00;;;0.83;;
70102;SDS011;57470;50.034;15.256;2023-09-19T08:15:51;4.27;;;1.37;;
70102;SDS011;57470;50.034;15.256;2023-09-19T08:18:21;4.27;;;0.73;;
70102;SDS011;57470;50.034;15.256;2023-09-19T08:20:49;6.13;;;0.95;;
70102;SDS011;57470;50.034;15.256;2023-09-19T08:23:16;4.40;;;0.80;;
70102;SDS011;57470;50.034;15.256;2023-09-19T08:25:45;4.10;;;1.20;;
70102;SDS011;57470;50.034;15.256;2023-09-19T08:28:11;4.35;;;0.90;;
70102;SDS011;57470;50.034;15.256;2023-09-19T08:30:39;5.50;;;1.03;;
70102;SDS011;57470;50.034;15.256;2023-09-19T08:33:06;3.22;;;0.77;;
70102;SDS011;57470;50.034;15.256;2023-09-19T08:35:32;4.22;;;0.82;;
70102;SDS011;57470;50.034;15.256;2023-09-19T08:37:58;3.47;;;1.07;;
70102;SDS011;57470;50.034;15.256;2023-09-19T08:40:25;3.25;;;0.68;;
70102;SDS011;57470;50.034;15.256;2023-09-19T08:42:55;2.95;;;0.68;;
70102;SDS011;57470;50.034;15.256;2023-09-19T08:45:21;6.32;;;1.17;;
70102;SDS011;57470;50.034;15.256;2023-09-19T08:53:46;3.35;;;0.82;;
70102;SDS011;57470;50.034;15.256;2023-09-19T08:56:34;4.82;;;1.00;;
70102;SDS011;57470;50.034;15.256;2023-09-19T08:59:04;4.97;;;0.90;;
70102;SDS011;57470;50.034;15.256;2023-09-19T09:01:34;3.55;;;0.93;;
70102;SDS011;57470;50.034;15.256;2023-09-19T09:04:01;3.80;;;1.07;;
70102;SDS011;57470;50.034;15.256;2023-09-19T09:06:27;3.25;;;0.70;;
70102;SDS011;57470;50.034;15.256;2023-09-19T09:08:55;3.50;;;1.00;;
70102;SDS011;57470;50.034;15.256;2023-09-19T09:11:21;3.72;;;0.98;;
70102;SDS011;57470;50.034;15.256;2023-09-19T09:13:49;3.03;;;0.70;;
70102;SDS011;57470;50.034;15.256;2023-09-19T09:16:15;3.77;;;0.57;;
70102;SDS011;57470;50.034;15.256;2023-09-19T09:18:44;3.45;;;0.88;;
70102;SDS011;57470;50.034;15.256;2023-09-19T09:21:19;4.32;;;1.00;;
70102;SDS011;57470;50.034;15.256;2023-09-19T09:23:46;2.90;;;0.60;;
70102;SDS011;57470;50.034;15.256;2023-09-19T09:26:12;4.43;;;0.80;;
70102;SDS011;57470;50.034;15.256;2023-09-19T09:28:44;3.50;;;0.87;;
70102;SDS011;57470;50.034;15.256;2023-09-19T09:31:21;4.47;;;0.98;;
70102;SDS011;57470;50.034;15.256;2023-09-19T09:33:57;3.38;;;0.80;;
70102;SDS011;57470;50.034;15.256;2023-09-19T09:36:36;5.32;;;0.80;;
70102;SDS011;57470;50.034;15.256;2023-09-19T09:39:03;3.10;;;0.60;;
70102;SDS011;57470;50.034;15.256;2023-09-19T09:41:41;3.45;;;0.90;;
70102;SDS011;57470;50.034;15.256;2023-09-19T09:44:16;3.38;;;0.85;;
70102;SDS011;57470;50.034;15.256;2023-09-19T09:46:44;3.50;;;0.93;;
70102;SDS011;57470;50.034;15.256;2023-09-19T09:49:23;2.83;;;0.60;;
70102;SDS011;57470;50.034;15.256;2023-09-19T09:52:05;3.47;;;0.60;;
70102;SDS011;57470;50.034;15.256;2023-09-19T09:54:33;3.58;;;1.10;;
70102;SDS011;57470;50.034;15.256;2023-09-19T09:57:02;3.40;;;1.00;;
70102;SDS011;57470;50.034;15.256;2023-09-19T09:59:49;3.25;;;0.77;;
70102;SDS011;57470;50.034;15.256;2023-09-19T10:02:19;2.88;;;0.65;;
70102;SDS011;57470;50.034;15.256;2023-09-19T10:04:57;2.43;;;0.60;;
70102;SDS011;57470;50.034;15.256;2023-09-19T10:07:35;9.32;;;1.30;;
70102;SDS011;57470;50.034;15.256;2023-09-19T10:10:05;3.33;;;0.68;;
70102;SDS011;57470;50.034;15.256;2023-09-19T10:12:42;3.58;;;0.88;;
70102;SDS011;57470;50.034;15.256;2023-09-19T10:15:10;3.08;;;0.70;;
70102;SDS011;57470;50.034;15.256;2023-09-19T10:17:36;3.43;;;0.97;;
70102;SDS011;57470;50.034;15.256;2023-09-19T10:20:08;3.80;;;0.85;;
70102;SDS011;57470;50.034;15.256;2023-09-19T10:22:47;3.55;;;0.70;;
70102;SDS011;57470;50.034;15.256;2023-09-19T10:25:23;4.53;;;1.25;;
70102;SDS011;57470;50.034;15.256;2023-09-19T10:27:50;4.13;;;1.10;;
70102;SDS011;57470;50.034;15.256;2023-09-19T10:30:22;4.50;;;0.70;;
70102;SDS011;57470;50.034;15.256;2023-09-19T10:32:50;3.55;;;0.80;;
70102;SDS011;57470;50.034;15.256;2023-09-19T10:35:22;3.33;;;0.90;;
70102;SDS011;57470;50.034;15.256;2023-09-19T10:37:49;3.20;;;0.82;;
70102;SDS011;57470;50.034;15.256;2023-09-19T10:40:16;3.60;;;1.03;;
70102;SDS011;57470;50.034;15.256;2023-09-19T10:42:45;4.15;;;0.95;;
70102;SDS011;57470;50.034;15.256;2023-09-19T10:45:13;3.58;;;0.95;;
70102;SDS011;57470;50.034;15.256;2023-09-19T10:47:42;5.45;;;0.73;;
70102;SDS011;57470;50.034;15.256;2023-09-19T10:50:08;2.93;;;0.80;;
70102;SDS011;57470;50.034;15.256;2023-09-19T10:52:37;3.00;;;0.63;;
70102;SDS011;57470;50.034;15.256;2023-09-19T10:55:07;6.22;;;1.10;;
70102;SDS011;57470;50.034;15.256;2023-09-19T10:57:34;3.67;;;0.80;;
70102;SDS011;57470;50.034;15.256;2023-09-19T11:00:07;4.68;;;0.65;;
70102;SDS011;57470;50.034;15.256;2023-09-19T11:06:03;3.42;;;1.00;;
70102;SDS011;57470;50.034;15.256;2023-09-19T11:08:55;4.32;;;1.20;;
70102;SDS011;57470;50.034;15.256;2023-09-19T11:11:46;3.47;;;0.80;;
70102;SDS011;57470;50.034;15.256;2023-09-19T11:30:33;3.72;;;0.90;;
70102;SDS011;57470;50.034;15.256;2023-09-19T11:36:08;4.65;;;1.00;;
70102;SDS011;57470;50.034;15.256;2023-09-19T11:43:48;3.22;;;0.60;;
70102;SDS011;57470;50.034;15.256;2023-09-19T11:46:15;3.58;;;0.60;;
70102;SDS011;57470;50.034;15.256;2023-09-19T11:48:47;3.40;;;1.05;;
70102;SDS011;57470;50.034;15.256;2023-09-19T11:51:17;5.33;;;1.57;;
70102;SDS011;57470;50.034;15.256;2023-09-19T11:53:53;4.63;;;1.13;;
70102;SDS011;57470;50.034;15.256;2023-09-19T11:56:21;4.22;;;1.30;;
70102;SDS011;57470;50.034;15.256;2023-09-19T11:58:52;4.90;;;1.20;;
70102;SDS011;57470;50.034;15.256;2023-09-19T12:01:37;3.97;;;1.20;;
70102;SDS011;57470;50.034;15.256;2023-09-19T12:04:08;4.37;;;1.00;;
70102;SDS011;57470;50.034;15.256;2023-09-19T12:06:36;3.45;;;0.75;;
70102;SDS011;57470;50.034;15.256;2023-09-19T12:09:04;3.95;;;1.20;;
70102;SDS011;57470;50.034;15.256;2023-09-19T12:11:40;4.15;;;0.90;;
70102;SDS011;57470;50.034;15.256;2023-09-19T12:14:08;3.65;;;1.08;;
70102;SDS011;57470;50.034;15.256;2023-09-19T12:16:34;4.37;;;1.00;;
70102;SDS011;57470;50.034;15.256;2023-09-19T12:19:17;5.78;;;1.83;;
70102;SDS011;57470;50.034;15.256;2023-09-19T12:21:53;4.85;;;1.35;;
70102;SDS011;57470;50.034;15.256;2023-09-19T12:24:19;4.28;;;1.13;;
70102;SDS011;57470;50.034;15.256;2023-09-19T12:26:45;4.20;;;1.17;;
70102;SDS011;57470;50.034;15.256;2023-09-19T12:29:20;5.80;;;1.10;;
70102;SDS011;57470;50.034;15.256;2023-09-19T12:31:50;7.35;;;1.40;;
70102;SDS011;57470;50.034;15.256;2023-09-19T12:34:40;6.00;;;1.03;;
70102;SDS011;57470;50.034;15.256;2023-09-19T12:37:13;3.90;;;1.17;;
70102;SDS011;57470;50.034;15.256;2023-09-19T12:40:02;4.47;;;1.23;;
70102;SDS011;57470;50.034;15.256;2023-09-19T12:42:39;3.50;;;1.00;;
70102;SDS011;57470;50.034;15.256;2023-09-19T12:45:06;4.20;;;1.02;;
70102;SDS011;57470;50.034;15.256;2023-09-19T12:47:34;5.30;;;1.40;;
70102;SDS011;57470;50.034;15.256;2023-09-19T12:50:12;5.20;;;1.25;;
70102;SDS011;57470;50.034;15.256;2023-09-19T12:52:44;3.80;;;1.05;;
70102;SDS011;57470;50.034;15.256;2023-09-19T12:55:28;4.40;;;1.20;;
70102;SDS011;57470;50.034;15.256;2023-09-19T12:58:08;3.60;;;0.88;;
70102;SDS011;57470;50.034;15.256;2023-09-19T13:00:38;4.32;;;1.15;;
70102;SDS011;57470;50.034;15.256;2023-09-19T13:03:09;3.60;;;1.27;;
70102;SDS011;57470;50.034;15.256;2023-09-19T13:05:55;4.22;;;1.35;;
70102;SDS011;57470;50.034;15.256;2023-09-19T13:13:37;7.05;;;1.17;;
70102;SDS011;57470;50.034;15.256;2023-09-19T13:16:07;3.78;;;1.23;;
70102;SDS011;57470;50.034;15.256;2023-09-19T13:18:43;3.88;;;0.90;;
70102;SDS011;57470;50.034;15.256;2023-09-19T13:26:48;7.22;;;0.98;;
70102;SDS011;57470;50.034;15.256;2023-09-19T13:29:14;3.67;;;1.05;;
70102;SDS011;57470;50.034;15.256;2023-09-19T13:31:45;3.27;;;0.90;;
70102;SDS011;57470;50.034;15.256;2023-09-19T13:34:14;3.38;;;0.80;;
70102;SDS011;57470;50.034;15.256;2023-09-19T13:36:43;3.38;;;0.70;;
70102;SDS011;57470;50.034;15.256;2023-09-19T13:39:08;3.63;;;0.80;;
70102;SDS011;57470;50.034;15.256;2023-09-19T13:41:34;4.10;;;1.20;;
70102;SDS011;57470;50.034;15.256;2023-09-19T13:44:02;3.78;;;1.05;;
70102;SDS011;57470;50.034;15.256;2023-09-19T13:46:28;3.22;;;0.80;;
70102;SDS011;57470;50.034;15.256;2023-09-19T13:48:53;4.97;;;1.03;;
70102;SDS011;57470;50.034;15.256;2023-09-19T13:51:20;5.28;;;0.98;;
70102;SDS011;57470;50.034;15.256;2023-09-19T13:53:48;3.30;;;0.95;;
70102;SDS011;57470;50.034;15.256;2023-09-19T13:56:15;3.20;;;0.77;;
70102;SDS011;57470;50.034;15.256;2023-09-19T13:58:41;5.15;;;1.15;;
70102;SDS011;57470;50.034;15.256;2023-09-19T14:01:07;3.70;;;1.20;;
70102;SDS011;57470;50.034;15.256;2023-09-19T14:03:37;4.00;;;0.90;;
70102;SDS011;57470;50.034;15.256;2023-09-19T14:06:03;3.35;;;0.75;;
70102;SDS011;57470;50.034;15.256;2023-09-19T14:08:28;3.83;;;1.13;;
70102;SDS011;57470;50.034;15.256;2023-09-19T14:10:54;3.57;;;1.00;;
70102;SDS011;57470;50.034;15.256;2023-09-19T14:13:19;4.57;;;1.10;;
70102;SDS011;57470;50.034;15.256;2023-09-19T14:15:45;3.72;;;1.00;;
70102;SDS011;57470;50.034;15.256;2023-09-19T14:18:11;7.50;;;0.90;;
70102;SDS011;57470;50.034;15.256;2023-09-19T14:20:39;6.20;;;0.80;;
70102;SDS011;57470;50.034;15.256;2023-09-19T14:23:06;4.05;;;0.95;;
70102;SDS011;57470;50.034;15.256;2023-09-19T14:25:34;4.20;;;0.93;;
70102;SDS011;57470;50.034;15.256;2023-09-19T14:28:00;4.72;;;1.00;;
70102;SDS011;57470;50.034;15.256;2023-09-19T14:30:25;3.63;;;0.70;;
70102;SDS011;57470;50.034;15.256;2023-09-19T14:32:51;9.70;;;1.27;;
70102;SDS011;57470;50.034;15.256;2023-09-19T14:35:16;3.30;;;0.90;;
70102;SDS011;57470;50.034;15.256;2023-09-19T14:37:42;4.03;;;0.95;;
70102;SDS011;57470;50.034;15.256;2023-09-19T14:40:08;5.03;;;0.87;;
70102;SDS011;57470;50.034;15.256;2023-09-19T14:42:34;3.97;;;1.13;;
70102;SDS011;57470;50.034;15.256;2023-09-19T14:45:10;3.63;;;0.73;;
70102;SDS011;57470;50.034;15.256;2023-09-19T14:47:36;3.45;;;0.73;;
70102;SDS011;57470;50.034;15.256;2023-09-19T14:50:02;5.13;;;1.02;;
70102;SDS011;57470;50.034;15.256;2023-09-19T14:52:32;5.15;;;1.08;;
70102;SDS011;57470;50.034;15.256;2023-09-19T14:54:59;3.50;;;0.70;;
70102;SDS011;57470;50.034;15.256;2023-09-19T14:57:25;3.33;;;0.80;;
70102;SDS011;57470;50.034;15.256;2023-09-19T14:59:51;7.15;;;1.58;;
70102;SDS011;57470;50.034;15.256;2023-09-19T15:02:17;3.70;;;0.80;;
70102;SDS011;57470;50.034;15.256;2023-09-19T15:04:42;6.07;;;1.07;;
70102;SDS011;57470;50.034;15.256;2023-09-19T15:07:12;3.53;;;0.80;;
70102;SDS011;57470;50.034;15.256;2023-09-19T15:09:41;3.05;;;0.50;;
70102;SDS011;57470;50.034;15.256;2023-09-19T15:12:07;4.18;;;0.95;;
70102;SDS011;57470;50.034;15.256;2023-09-19T15:14:32;2.87;;;0.40;;
70102;SDS011;57470;50.034;15.256;2023-09-19T15:16:57;3.23;;;0.97;;
70102;SDS011;57470;50.034;15.256;2023-09-19T15:19:23;3.67;;;1.10;;
70102;SDS011;57470;50.034;15.256;2023-09-19T15:21:48;3.47;;;1.03;;
70102;SDS011;57470;50.034;15.256;2023-09-19T15:24:14;3.22;;;0.63;;
70102;SDS011;57470;50.034;15.256;2023-09-19T15:26:39;3.43;;;0.63;;
70102;SDS011;57470;50.034;15.256;2023-09-19T15:29:08;5.37;;;0.87;;
70102;SDS011;57470;50.034;15.256;2023-09-19T15:31:34;3.47;;;0.70;;
70102;SDS011;57470;50.034;15.256;2023-09-19T15:34:03;4.13;;;0.95;;
70102;SDS011;57470;50.034;15.256;2023-09-19T15:36:29;3.28;;;0.77;;
70102;SDS011;57470;50.034;15.256;2023-09-19T15:41:39;3.72;;;1.10;;
70102;SDS011;57470;50.034;15.256;2023-09-19T15:44:13;8.15;;;3.33;;